Time;durP1;ratioP1;P1;durP2;ratioP2;P2;SDS_P1;SDS_P2;PMS_P1;PMS_P2;Temp;Humidity;BMP_temperature;BMP_pressure;BME280_temperature;BME280_humidity;BME280_pressure;Samples;Min_cycle;Max_cycle;Signal;HPM_P1;HPM_P2
2022/05/02 00:01:21;;;;;;;10.13;6.95;;;17.10;50.80;;;;;;5034849;28;20049;-67
2022/05/02 00:03:46;;;;;;;10.45;7.30;;;17.10;51.10;;;;;;5021997;28;20082;-67
2022/05/02 00:06:12;;;;;;;9.77;6.70;;;17.00;51.00;;;;;;5012466;28;20034;-67
2022/05/02 00:08:38;;;;;;;9.77;6.65;;;17.00;50.90;;;;;;5024656;28;20052;-67
2022/05/02 00:11:03;;;;;;;10.07;6.90;;;17.00;51.40;;;;;;5031551;28;20167;-67
2022/05/02 00:13:29;;;;;;;11.02;7.63;;;17.00;51.30;;;;;;5009191;28;20516;-67
2022/05/02 00:15:55;;;;;;;9.82;7.05;;;17.00;51.20;;;;;;5031419;28;20195;-67
2022/05/02 00:18:21;;;;;;;11.15;7.18;;;17.00;51.20;;;;;;5038464;28;20039;-67
2022/05/02 00:20:46;;;;;;;10.27;6.53;;;17.00;51.30;;;;;;5023445;28;20445;-67
2022/05/02 00:23:12;;;;;;;9.93;7.05;;;16.90;51.30;;;;;;5015319;28;20492;-67
2022/05/02 00:25:38;;;;;;;11.02;6.75;;;16.90;51.30;;;;;;5031916;28;20021;-67
2022/05/02 00:28:05;;;;;;;9.18;6.55;;;16.90;51.40;;;;;;5036603;28;20047;-67
2022/05/02 00:30:31;;;;;;;9.60;6.43;;;16.90;51.40;;;;;;5034990;28;20029;-67
2022/05/02 00:32:57;;;;;;;10.65;6.72;;;16.90;51.40;;;;;;5025708;28;20852;-67
2022/05/02 00:35:24;;;;;;;11.35;6.90;;;16.90;51.50;;;;;;5030248;28;20108;-67
2022/05/02 00:37:50;;;;;;;12.38;7.22;;;16.90;51.40;;;;;;5038217;28;20076;-67
2022/05/02 00:40:17;;;;;;;10.18;7.10;;;16.90;51.40;;;;;;5030431;28;20378;-67
2022/05/02 00:42:44;;;;;;;9.73;6.43;;;16.90;51.40;;;;;;5016332;28;20485;-67
2022/05/02 00:45:12;;;;;;;11.13;6.22;;;17.00;51.60;;;;;;5028373;28;20021;-67
2022/05/02 00:47:38;;;;;;;11.00;6.70;;;17.00;51.70;;;;;;5020333;28;20379;-67
2022/05/02 00:50:08;;;;;;;11.98;6.68;;;17.00;52.00;;;;;;5016492;28;20049;-67
2022/05/02 00:52:34;;;;;;;11.50;6.68;;;17.00;52.50;;;;;;5012961;28;20026;-67
2022/05/02 00:55:02;;;;;;;12.10;7.22;;;17.00;53.10;;;;;;5020659;28;20033;-67
2022/05/02 00:57:31;;;;;;;9.50;7.28;;;17.00;53.40;;;;;;5018879;28;20029;-67
2022/05/02 00:59:56;;;;;;;12.20;7.45;;;17.00;53.40;;;;;;5022870;28;20036;-67
2022/05/02 01:02:22;;;;;;;10.85;7.40;;;16.90;53.70;;;;;;5020778;28;20030;-67
2022/05/02 01:04:48;;;;;;;11.77;7.75;;;16.90;54.00;;;;;;5014689;28;20054;-67
2022/05/02 01:07:19;;;;;;;10.68;7.57;;;16.90;54.40;;;;;;5040120;28;20501;-67
2022/05/02 01:09:49;;;;;;;;;;;16.80;54.50;;;;;;5033920;28;20461;-67
2022/05/02 01:12:24;;;;;;;12.10;7.87;;;16.80;54.70;;;;;;5015254;28;19913;-67
2022/05/02 01:14:53;;;;;;;11.43;7.88;;;16.80;55.40;;;;;;5014841;28;20034;-67
2022/05/02 01:17:20;;;;;;;10.00;7.13;;;16.70;55.70;;;;;;5027560;28;20037;-67
2022/05/02 01:19:46;;;;;;;10.55;6.53;;;16.70;56.10;;;;;;5014599;28;20034;-67
2022/05/02 01:22:12;;;;;;;9.52;7.05;;;16.70;56.60;;;;;;5039897;28;20033;-67
2022/05/02 01:24:43;;;;;;;10.15;7.20;;;16.70;57.40;;;;;;5033928;28;20017;-67
2022/05/02 01:27:10;;;;;;;9.20;6.78;;;16.70;57.90;;;;;;5015701;28;20042;-67
2022/05/02 01:29:38;;;;;;;9.57;6.78;;;16.70;58.10;;;;;;5025095;28;20032;-67
2022/05/02 01:32:08;;;;;;;10.80;7.03;;;16.70;58.30;;;;;;5032367;28;20022;-67
2022/05/02 01:34:35;;;;;;;9.80;7.20;;;16.70;58.70;;;;;;5025622;28;20025;-67
2022/05/02 01:37:02;;;;;;;11.82;7.75;;;16.70;59.20;;;;;;5037507;28;20033;-67
2022/05/02 01:39:29;;;;;;;11.68;7.05;;;16.70;59.60;;;;;;5013307;28;20034;-67
2022/05/02 01:42:01;;;;;;;9.43;7.00;;;16.70;59.90;;;;;;5026454;28;20028;-67
2022/05/02 01:44:27;;;;;;;11.30;7.43;;;16.70;60.00;;;;;;5027126;28;20034;-67
2022/05/02 01:46:53;;;;;;;10.00;7.40;;;16.70;60.10;;;;;;5025068;28;20021;-67
2022/05/02 01:49:19;;;;;;;11.88;6.93;;;16.70;60.00;;;;;;5009970;28;20061;-67
2022/05/02 01:51:45;;;;;;;10.82;7.50;;;16.70;59.90;;;;;;5040722;28;20488;-67
2022/05/02 01:54:11;;;;;;;11.40;6.85;;;16.60;59.90;;;;;;5015351;28;20545;-67
2022/05/02 01:56:36;;;;;;;8.90;7.05;;;16.60;60.00;;;;;;5023047;28;20462;-67
2022/05/02 01:59:03;;;;;;;9.88;7.28;;;16.60;61.20;;;;;;5026358;28;20044;-67
2022/05/02 02:01:29;;;;;;;11.15;7.22;;;16.60;60.30;;;;;;5018620;28;20113;-67
2022/05/02 02:03:55;;;;;;;10.35;7.28;;;16.60;61.50;;;;;;5025455;28;20104;-67
2022/05/02 02:06:21;;;;;;;10.40;7.47;;;16.50;60.80;;;;;;5018217;28;20159;-67
2022/05/02 02:08:48;;;;;;;10.07;7.28;;;16.50;61.20;;;;;;5021588;28;20061;-67
2022/05/02 02:11:14;;;;;;;10.35;7.10;;;16.50;61.50;;;;;;5013842;28;20116;-67
2022/05/02 02:13:40;;;;;;;10.45;7.15;;;16.50;61.60;;;;;;5027416;28;20119;-67
2022/05/02 02:16:09;;;;;;;9.23;6.75;;;16.50;61.70;;;;;;5018066;28;20782;-67
2022/05/02 02:18:36;;;;;;;12.45;7.90;;;16.50;61.80;;;;;;5041072;28;20135;-67
2022/05/02 02:21:03;;;;;;;12.20;7.97;;;16.50;61.80;;;;;;5017482;28;20034;-67
2022/05/02 02:23:29;;;;;;;10.25;7.65;;;16.40;61.70;;;;;;5021649;28;20046;-67
2022/05/02 02:25:55;;;;;;;9.80;7.55;;;16.40;61.90;;;;;;5025715;28;20782;-67
2022/05/02 02:28:21;;;;;;;12.57;7.72;;;16.40;62.00;;;;;;5022460;28;20406;-67
2022/05/02 02:30:47;;;;;;;10.25;7.70;;;16.30;62.00;;;;;;5026761;28;20373;-67
2022/05/02 02:33:13;;;;;;;12.65;7.97;;;16.30;62.20;;;;;;5029616;28;20033;-67
2022/05/02 02:35:39;;;;;;;13.13;7.88;;;16.30;62.10;;;;;;5017702;28;20040;-67
2022/05/02 02:38:05;;;;;;;13.68;8.10;;;16.30;61.90;;;;;;5019500;28;20044;-67
2022/05/02 02:40:31;;;;;;;12.43;8.13;;;16.20;61.50;;;;;;5020092;28;20025;-67
2022/05/02 02:42:57;;;;;;;11.35;7.35;;;16.20;61.30;;;;;;5021123;28;20033;-67
2022/05/02 02:45:23;;;;;;;12.13;7.50;;;16.20;61.80;;;;;;5013954;28;20022;-67
2022/05/02 02:47:49;;;;;;;10.88;7.15;;;16.30;62.50;;;;;;5024334;28;20064;-67
2022/05/02 02:50:14;;;;;;;11.10;7.50;;;16.20;62.80;;;;;;5023269;28;20087;-67
2022/05/02 02:52:40;;;;;;;9.90;7.47;;;16.20;62.90;;;;;;5026922;28;20026;-67
2022/05/02 02:55:06;;;;;;;12.63;7.78;;;16.20;63.00;;;;;;5012113;28;20034;-67
2022/05/02 02:57:33;;;;;;;10.38;7.53;;;16.20;63.10;;;;;;5028181;28;20484;-67
2022/05/02 02:59:59;;;;;;;11.13;7.57;;;16.20;63.20;;;;;;5027078;28;20040;-67
2022/05/02 03:02:25;;;;;;;11.40;7.97;;;16.20;63.30;;;;;;5020772;28;20034;-67
2022/05/02 03:07:36;;;;;;;11.65;8.05;;;16.10;63.40;;;;;;5026214;28;20130;-67
2022/05/02 03:10:02;;;;;;;9.77;7.68;;;16.10;63.50;;;;;;5011117;28;20108;-67
2022/05/02 03:12:28;;;;;;;10.93;8.25;;;16.10;63.80;;;;;;5028530;28;20124;-67
2022/05/02 03:14:53;;;;;;;11.43;7.82;;;16.10;64.00;;;;;;5019084;28;20768;-67
2022/05/02 03:17:19;;;;;;;9.45;7.60;;;16.10;64.20;;;;;;5018059;28;20025;-67
2022/05/02 03:19:45;;;;;;;11.02;8.20;;;16.00;64.10;;;;;;5025860;28;20040;-67
2022/05/02 03:22:11;;;;;;;11.32;8.02;;;16.10;64.30;;;;;;5027891;28;20049;-67
2022/05/02 03:24:36;;;;;;;12.75;8.30;;;16.00;64.50;;;;;;5011103;28;20125;-67
2022/05/02 03:27:02;;;;;;;11.30;8.65;;;16.00;64.90;;;;;;5017178;28;20033;-67
2022/05/02 03:29:28;;;;;;;11.02;8.05;;;16.00;65.30;;;;;;5030793;28;20467;-67
2022/05/02 03:31:53;;;;;;;11.93;8.20;;;16.00;66.00;;;;;;5029185;28;20246;-67
2022/05/02 03:34:19;;;;;;;11.90;8.45;;;15.90;66.50;;;;;;5026513;28;20030;-67
2022/05/02 03:36:45;;;;;;;13.00;8.27;;;15.90;66.60;;;;;;5018723;28;20080;-67
2022/05/02 03:39:10;;;;;;;12.02;8.63;;;15.90;66.80;;;;;;5021149;28;20037;-67
2022/05/02 03:41:36;;;;;;;11.93;8.65;;;15.80;66.90;;;;;;5015193;28;20026;-67
2022/05/02 03:44:02;;;;;;;13.10;8.98;;;15.80;66.80;;;;;;5023381;28;20436;-67
2022/05/02 03:46:27;;;;;;;11.90;9.13;;;15.80;66.90;;;;;;5038602;28;20481;-67
2022/05/02 03:48:54;;;;;;;11.15;8.77;;;15.80;66.90;;;;;;5029575;28;20029;-67
2022/05/02 03:51:20;;;;;;;11.50;8.60;;;15.80;67.00;;;;;;5034321;28;20132;-67
2022/05/02 03:53:46;;;;;;;14.05;8.48;;;15.70;67.00;;;;;;5023981;28;20104;-67
2022/05/02 03:56:12;;;;;;;11.02;8.73;;;15.70;67.20;;;;;;5031543;28;20021;-67
2022/05/02 03:58:38;;;;;;;11.60;8.45;;;15.70;67.20;;;;;;5030544;28;20110;-67
2022/05/02 04:01:04;;;;;;;12.43;8.63;;;15.70;67.30;;;;;;5025968;28;20492;-67
2022/05/02 04:03:30;;;;;;;15.77;9.40;;;15.70;67.20;;;;;;5026079;28;20025;-67
2022/05/02 04:05:56;;;;;;;11.82;8.68;;;15.70;67.30;;;;;;5018512;28;20052;-67
2022/05/02 04:08:21;;;;;;;12.07;8.70;;;15.70;67.20;;;;;;5026211;28;20116;-66
2022/05/02 04:10:47;;;;;;;12.82;8.68;;;15.70;67.10;;;;;;5029944;28;20049;-66
2022/05/02 04:13:13;;;;;;;12.40;8.52;;;15.70;67.00;;;;;;5030891;28;20030;-69
2022/05/02 04:15:38;;;;;;;11.80;8.82;;;15.70;67.00;;;;;;5037934;28;20176;-67
2022/05/02 04:18:04;;;;;;;13.30;8.90;;;15.70;67.00;;;;;;5032366;28;20517;-67
2022/05/02 04:20:30;;;;;;;11.05;8.55;;;15.70;67.00;;;;;;5026810;28;20545;-67
2022/05/02 04:22:56;;;;;;;14.93;9.25;;;15.70;66.90;;;;;;5021759;28;20033;-67
2022/05/02 04:25:21;;;;;;;11.20;8.75;;;15.70;66.90;;;;;;5018321;28;20108;-67
2022/05/02 04:27:47;;;;;;;12.05;8.60;;;15.60;66.90;;;;;;5027882;28;20065;-67
2022/05/02 04:30:13;;;;;;;12.75;8.68;;;15.60;66.90;;;;;;5024317;28;20064;-67
2022/05/02 04:32:39;;;;;;;12.00;8.65;;;15.60;67.00;;;;;;5021090;28;20060;-67
2022/05/02 04:35:06;;;;;;;12.70;8.55;;;15.60;67.10;;;;;;5025110;28;20552;-68
2022/05/02 04:37:32;;;;;;;11.50;8.48;;;15.60;67.30;;;;;;5024196;28;20041;-68
2022/05/02 04:39:57;;;;;;;11.32;8.65;;;15.60;67.60;;;;;;5029812;28;20022;-66
2022/05/02 04:42:23;;;;;;;10.77;8.30;;;15.60;67.80;;;;;;5029479;28;20025;-67
2022/05/02 04:44:49;;;;;;;10.40;7.95;;;15.60;67.90;;;;;;5025304;28;20022;-67
2022/05/02 04:47:16;;;;;;;11.57;9.10;;;15.60;67.90;;;;;;5035225;28;20038;-67
2022/05/02 04:49:43;;;;;;;11.90;8.70;;;15.60;68.10;;;;;;5027085;28;20504;-67
2022/05/02 04:52:08;;;;;;;11.35;8.20;;;15.50;68.20;;;;;;5037876;28;20029;-67
2022/05/02 04:54:34;;;;;;;10.55;8.63;;;15.50;68.40;;;;;;5029416;28;20032;-67
2022/05/02 04:57:01;;;;;;;13.27;9.30;;;15.50;68.40;;;;;;5021564;28;20037;-67
2022/05/02 04:59:26;;;;;;;14.55;9.13;;;15.50;68.20;;;;;;5023058;28;20088;-67
2022/05/02 05:01:52;;;;;;;11.30;8.68;;;15.50;68.20;;;;;;5016314;28;20026;-67
2022/05/02 05:04:18;;;;;;;14.00;8.82;;;15.50;68.20;;;;;;5024218;28;20060;-67
2022/05/02 05:06:44;;;;;;;13.07;8.75;;;15.50;68.70;;;;;;5035843;28;20021;-66
2022/05/02 05:09:09;;;;;;;12.57;8.85;;;15.50;68.90;;;;;;5028254;28;20150;-68
2022/05/02 05:11:57;;;;;;;14.43;8.98;;;15.50;68.90;;;;;;5022036;28;20021;-66
2022/05/02 05:18:24;;;;;;;13.02;9.13;;;15.40;68.50;;;;;;4998306;28;20044;-69
2022/05/02 05:21:07;;;;;;;16.08;9.13;;;15.40;68.20;;;;;;4996949;28;20029;-69
2022/05/02 05:24:05;;;;;;;15.60;9.50;;;15.40;68.00;;;;;;4999499;28;20083;-70
2022/05/02 05:26:54;;;;;;;12.25;8.98;;;15.40;67.90;;;;;;4992737;28;20141;-69
2022/05/02 05:29:57;;;;;;;17.27;12.68;;;15.30;67.70;;;;;;4996923;28;20046;-67
2022/05/02 05:32:37;;;;;;;12.55;9.40;;;15.30;67.50;;;;;;4988669;28;20067;-67
2022/05/02 05:35:05;;;;;;;14.13;8.95;;;15.30;67.40;;;;;;4999925;28;20147;-67
2022/05/02 05:37:57;;;;;;;11.73;9.00;;;15.30;67.20;;;;;;4996690;28;20080;-67
2022/05/02 05:40:28;;;;;;;12.45;9.00;;;15.40;67.10;;;;;;4997877;28;20832;-68
2022/05/02 05:42:57;;;;;;;;;;;15.40;66.90;;;;;;5002220;28;20038;-67
2022/05/02 05:45:32;;;;;;;11.82;8.73;;;15.40;66.80;;;;;;5004791;28;19917;-68
2022/05/02 05:48:18;;;;;;;14.73;9.20;;;15.40;66.60;;;;;;4995484;28;20042;-68
2022/05/02 05:51:17;;;;;;;13.43;9.07;;;15.50;66.60;;;;;;5000956;28;20057;-68
2022/05/02 05:53:49;;;;;;;13.82;9.55;;;15.50;66.50;;;;;;4944104;28;20066;-68
2022/05/02 05:56:20;;;;;;;11.70;9.57;;;15.50;66.40;;;;;;4967282;28;20545;-68
2022/05/02 05:58:50;;;;;;;17.52;9.43;;;15.50;66.50;;;;;;4963621;28;20042;-68
2022/05/02 06:01:44;;;;;;;18.13;9.80;;;15.40;66.60;;;;;;4952363;28;20039;-68
2022/05/02 06:04:12;;;;;;;19.75;9.40;;;15.40;66.60;;;;;;4948142;28;20044;-68
2022/05/02 06:06:39;;;;;;;15.07;9.27;;;15.50;66.40;;;;;;4946138;29;20053;-68
2022/05/02 06:09:06;;;;;;;14.15;9.48;;;15.50;66.30;;;;;;4943499;28;20055;-68
2022/05/02 06:11:36;;;;;;;13.02;8.70;;;15.60;66.20;;;;;;4943864;28;20102;-68
2022/05/02 06:14:02;;;;;;;11.57;9.30;;;15.70;65.80;;;;;;4946669;28;20137;-68
2022/05/02 06:19:17;;;;;;;17.17;9.00;;;15.90;65.20;;;;;;4948287;28;20090;-68
2022/05/02 06:21:44;;;;;;;15.80;9.75;;;15.90;64.80;;;;;;4945205;28;20062;-68
2022/05/02 06:24:14;;;;;;;14.45;9.35;;;16.00;64.50;;;;;;4942764;29;20039;-69
2022/05/02 06:26:42;;;;;;;14.18;9.05;;;16.10;64.20;;;;;;4944281;28;20031;-68
2022/05/02 06:29:10;;;;;;;14.95;8.93;;;16.20;63.80;;;;;;4943459;28;20724;-68
2022/05/02 06:31:37;;;;;;;16.05;9.50;;;16.20;63.30;;;;;;4991897;28;20128;-68
2022/05/02 06:34:04;;;;;;;16.88;9.65;;;16.30;63.10;;;;;;5001645;28;20037;-68
2022/05/02 06:36:39;;;;;;;13.82;9.00;;;16.30;62.90;;;;;;4992191;28;20112;-68
2022/05/02 06:39:26;;;;;;;13.45;8.90;;;16.40;62.30;;;;;;4991288;28;20038;-68
2022/05/02 06:42:00;;;;;;;10.77;8.38;;;16.40;62.10;;;;;;5019147;28;20124;-68
2022/05/02 06:44:48;;;;;;;13.20;9.05;;;16.50;61.80;;;;;;5019113;28;20084;-68
2022/05/02 06:47:24;;;;;;;12.43;8.68;;;16.50;61.60;;;;;;5013142;28;20524;-68
2022/05/02 06:49:55;;;;;;;21.10;9.68;;;16.50;61.40;;;;;;5012777;28;20034;-68
2022/05/02 06:52:29;;;;;;;13.73;8.98;;;16.60;61.10;;;;;;5035369;28;20491;-68
2022/05/02 06:55:19;;;;;;;14.75;9.20;;;16.60;60.80;;;;;;5025655;28;20037;-68
2022/05/02 06:58:03;;;;;;;14.75;9.18;;;16.60;60.70;;;;;;5015911;28;20044;-68
2022/05/02 07:00:34;;;;;;;12.30;8.90;;;16.70;60.00;;;;;;5013910;28;20029;-68
2022/05/02 07:03:09;;;;;;;12.52;8.88;;;16.70;59.70;;;;;;5017808;28;20025;-68
2022/05/02 07:06:05;;;;;;;21.05;9.70;;;16.70;59.30;;;;;;5018096;28;20038;-68
2022/05/02 07:08:38;;;;;;;13.82;9.38;;;16.80;59.00;;;;;;4999157;28;20058;-68
2022/05/02 07:11:08;;;;;;;16.50;9.27;;;16.80;58.60;;;;;;5004913;28;20521;-68
2022/05/02 07:14:02;;;;;;;13.63;8.90;;;16.80;58.40;;;;;;5004668;28;20046;-68
2022/05/02 07:16:32;;;;;;;12.55;8.90;;;16.90;58.50;;;;;;5006169;28;20112;-68
2022/05/02 07:19:25;;;;;;;13.02;9.35;;;16.80;58.30;;;;;;5006968;28;20026;-68
2022/05/02 07:22:03;;;;;;;13.20;8.75;;;16.90;58.40;;;;;;5007308;28;20100;-68
2022/05/02 07:24:59;;;;;;;17.25;9.57;;;16.90;57.70;;;;;;5007952;28;20030;-68
2022/05/02 07:27:52;;;;;;;11.57;8.90;;;17.00;58.60;;;;;;5010560;28;20037;-68
2022/05/02 07:30:21;;;;;;;13.15;9.15;;;17.00;57.10;;;;;;5009966;28;20068;-68
2022/05/02 07:32:47;;;;;;;12.60;9.00;;;17.10;57.10;;;;;;5009383;28;20033;-68
2022/05/02 07:35:15;;;;;;;12.57;9.05;;;17.20;56.40;;;;;;5009511;28;20042;-68
2022/05/02 07:37:42;;;;;;;20.90;8.70;;;17.20;55.50;;;;;;5012367;28;20026;-68
2022/05/02 07:40:11;;;;;;;14.02;8.95;;;17.30;54.90;;;;;;5009250;28;20405;-68
2022/05/02 07:42:38;;;;;;;11.93;8.80;;;17.30;54.40;;;;;;5010443;28;20030;-68
2022/05/02 07:45:10;;;;;;;13.55;9.00;;;17.40;53.90;;;;;;5010414;28;20122;-68
2022/05/02 07:47:36;;;;;;;11.68;8.70;;;17.50;53.70;;;;;;5022441;28;20511;-68
2022/05/02 07:50:05;;;;;;;14.30;9.23;;;17.70;53.20;;;;;;5017140;28;20094;-68
2022/05/02 07:52:34;;;;;;;13.55;8.85;;;17.70;51.90;;;;;;5030000;28;20591;-68
2022/05/02 07:55:01;;;;;;;12.77;9.20;;;17.70;51.90;;;;;;5012436;28;20029;-68
2022/05/02 07:57:30;;;;;;;16.58;9.57;;;17.70;52.10;;;;;;5016912;28;20095;-68
2022/05/02 07:59:59;;;;;;;14.50;8.93;;;17.70;53.30;;;;;;5030167;28;20031;-68
2022/05/02 08:02:25;;;;;;;12.63;8.90;;;17.80;52.30;;;;;;5030666;28;20029;-68
2022/05/02 08:04:53;;;;;;;12.55;8.85;;;17.80;51.90;;;;;;5027277;28;20519;-68
2022/05/02 08:07:23;;;;;;;12.95;8.63;;;17.90;51.60;;;;;;5017802;28;20050;-68
2022/05/02 08:10:16;;;;;;;12.27;8.87;;;18.00;51.70;;;;;;5028088;28;20033;-68
2022/05/02 08:12:55;;;;;;;13.73;8.77;;;18.10;51.20;;;;;;5013365;28;20313;-68
2022/05/02 08:15:44;;;;;;;15.75;8.70;;;18.20;50.20;;;;;;5015412;28;20386;-68
2022/05/02 08:18:57;;;;;;;12.48;8.30;;;18.30;49.80;;;;;;5015726;28;20069;-68
2022/05/02 08:21:32;;;;;;;14.32;8.68;;;18.30;50.10;;;;;;5027355;28;20151;-68
2022/05/02 08:27:17;;;;;;;13.25;8.82;;;18.40;50.20;;;;;;5025686;28;20817;-68
2022/05/02 08:29:48;;;;;;;15.18;9.65;;;18.50;50.20;;;;;;5028218;28;20072;-69
2022/05/02 08:32:51;;;;;;;11.85;8.85;;;18.60;50.40;;;;;;5028112;28;20041;-68
2022/05/02 08:35:23;;;;;;;12.32;8.75;;;18.70;49.70;;;;;;5028007;28;20038;-68
2022/05/02 08:38:09;;;;;;;13.63;9.15;;;18.80;48.80;;;;;;5025722;28;20482;-68
2022/05/02 08:41:10;;;;;;;13.75;9.80;;;18.90;48.30;;;;;;5028742;28;20044;-68
2022/05/02 08:44:09;;;;;;;15.00;9.50;;;19.00;48.00;;;;;;4967814;28;20046;-68
2022/05/02 08:47:05;;;;;;;12.30;8.77;;;19.00;47.10;;;;;;4961223;28;20128;-68
2022/05/02 08:49:52;;;;;;;13.80;9.27;;;19.10;46.90;;;;;;4954030;28;20047;-68
2022/05/02 08:52:36;;;;;;;12.93;9.40;;;19.20;46.10;;;;;;4969451;28;20149;-68
2022/05/02 08:55:06;;;;;;;15.27;9.43;;;19.30;46.00;;;;;;4969044;28;20543;-68
2022/05/02 08:57:55;;;;;;;11.68;9.40;;;19.40;46.00;;;;;;4970150;28;20069;-68
2022/05/02 09:01:00;;;;;;;13.82;9.65;;;19.60;45.90;;;;;;4966670;28;20046;-68
2022/05/02 09:03:47;;;;;;;14.32;9.18;;;19.80;45.50;;;;;;4969850;28;20050;-68
2022/05/02 09:06:19;;;;;;;12.23;8.90;;;19.90;44.50;;;;;;4964795;28;20042;-68
2022/05/02 09:09:05;;;;;;;13.30;9.20;;;20.00;43.30;;;;;;4964289;28;20062;-69
2022/05/02 09:11:37;;;;;;;12.35;9.23;;;20.20;42.90;;;;;;4964475;28;20035;-69
2022/05/02 09:14:14;;;;;;;15.50;9.57;;;20.30;43.00;;;;;;4965131;28;20537;-68
2022/05/02 09:17:05;;;;;;;13.68;9.65;;;20.40;43.40;;;;;;4964809;28;20070;-68
2022/05/02 09:20:10;;;;;;;13.43;9.07;;;20.60;43.30;;;;;;4983223;28;20064;-68
2022/05/02 09:22:42;;;;;;;12.18;9.20;;;20.70;42.60;;;;;;5007066;28;20120;-68
2022/05/02 09:25:10;;;;;;;13.32;9.45;;;20.90;42.00;;;;;;5008094;28;20053;-68
2022/05/02 09:28:13;;;;;;;13.00;9.60;;;21.10;40.40;;;;;;5008231;28;20126;-69
2022/05/02 09:30:39;;;;;;;13.93;9.38;;;21.20;40.50;;;;;;5007196;28;20053;-69
2022/05/02 09:33:17;;;;;;;14.02;9.43;;;21.30;39.90;;;;;;5007298;28;20151;-69
2022/05/02 09:35:53;;;;;;;15.68;9.85;;;21.40;40.00;;;;;;5007663;28;20040;-68
2022/05/02 09:38:27;;;;;;;13.43;9.27;;;21.60;39.20;;;;;;5004546;28;20030;-68
2022/05/02 09:41:33;;;;;;;12.27;9.07;;;21.80;39.10;;;;;;5007029;28;20110;-69
2022/05/02 09:50:25;;;;;;;13.80;10.00;;;22.50;37.40;;;;;;4979022;28;20102;-69
2022/05/02 09:53:02;;;;;;;13.52;9.23;;;22.80;36.60;;;;;;4980001;28;20121;-68
2022/05/02 09:58:42;;;;;;;13.10;9.20;;;23.20;35.50;;;;;;4967823;28;20097;-69
2022/05/02 10:01:25;;;;;;;14.25;9.10;;;23.50;35.00;;;;;;4966332;28;20473;-69
2022/05/02 10:04:20;;;;;;;11.20;8.95;;;23.80;34.60;;;;;;4965757;28;20039;-68
2022/05/02 10:06:52;;;;;;;11.95;9.15;;;24.00;34.00;;;;;;4968898;28;20514;-69
2022/05/02 10:09:40;;;;;;;13.63;9.73;;;24.30;33.60;;;;;;4963943;28;20074;-68
2022/05/02 10:12:30;;;;;;;12.68;9.65;;;24.70;33.30;;;;;;4963752;28;20031;-69
2022/05/02 10:15:19;;;;;;;14.60;10.80;;;25.10;32.20;;;;;;4963514;28;20058;-69
2022/05/02 10:17:54;;;;;;;14.65;9.70;;;25.50;31.20;;;;;;4963501;28;20039;-69
2022/05/02 10:20:22;;;;;;;12.15;9.13;;;25.90;30.60;;;;;;4973503;28;20045;-69
2022/05/02 10:22:48;;;;;;;13.18;9.13;;;26.20;30.00;;;;;;5024811;28;20496;-69
2022/05/02 10:25:27;;;;;;;12.32;9.35;;;26.40;29.30;;;;;;5024148;28;20118;-69
2022/05/02 10:28:04;;;;;;;11.40;9.05;;;26.50;28.40;;;;;;5029518;28;20056;-69
2022/05/02 10:30:43;;;;;;;13.45;8.88;;;26.60;28.10;;;;;;5014655;28;20044;-69
2022/05/02 10:33:14;;;;;;;13.98;9.40;;;26.70;28.30;;;;;;5021103;28;20503;-69
2022/05/02 10:35:45;;;;;;;13.18;9.68;;;26.90;28.40;;;;;;5018347;28;20062;-69
2022/05/02 10:38:19;;;;;;;12.13;8.85;;;27.00;28.00;;;;;;5013516;28;20033;-68
2022/05/02 10:40:50;;;;;;;12.43;8.35;;;27.10;27.60;;;;;;5012327;28;20083;-69
2022/05/02 10:43:26;;;;;;;12.02;8.30;;;27.20;27.60;;;;;;5016562;28;20068;-69
2022/05/02 10:45:52;;;;;;;11.05;7.93;;;27.40;26.50;;;;;;5041507;28;20079;-69
2022/05/02 10:48:18;;;;;;;12.65;8.60;;;27.50;26.40;;;;;;5013191;28;20034;-69
2022/05/02 10:50:57;;;;;;;10.95;7.55;;;27.70;26.90;;;;;;5019531;28;20092;-68
2022/05/02 10:53:47;;;;;;;11.60;7.22;;;27.50;26.90;;;;;;5019160;28;20025;-68
2022/05/02 10:56:14;;;;;;;15.60;7.00;;;27.40;26.00;;;;;;5017475;28;20044;-69
2022/05/02 10:58:44;;;;;;;10.10;6.65;;;27.50;25.90;;;;;;5036872;28;20046;-69
2022/05/02 11:01:57;;;;;;;12.75;7.28;;;27.50;25.90;;;;;;5012590;28;20025;-69
2022/05/02 11:04:29;;;;;;;11.85;8.00;;;27.50;26.40;;;;;;5019867;28;20501;-68
2022/05/02 11:07:27;;;;;;;16.92;7.72;;;27.80;26.40;;;;;;5025187;28;20393;-69
2022/05/02 11:10:09;;;;;;;12.95;7.95;;;28.10;26.30;;;;;;5024475;28;20049;-68
2022/05/02 11:12:41;;;;;;;14.15;7.07;;;28.50;25.60;;;;;;5015856;28;20397;-69
2022/05/02 11:15:18;;;;;;;10.00;7.20;;;28.60;26.00;;;;;;5012775;28;20038;-68
2022/05/02 11:18:07;;;;;;;11.38;7.97;;;28.30;26.30;;;;;;5020408;28;20032;-68
2022/05/02 11:20:59;;;;;;;8.68;7.32;;;27.90;26.20;;;;;;5027455;28;20029;-68
2022/05/02 11:23:50;;;;;;;10.20;7.82;;;27.40;26.30;;;;;;5019725;28;20072;-68
2022/05/02 11:26:43;;;;;;;12.48;8.50;;;27.30;26.60;;;;;;5012748;28;20037;-69
2022/05/02 11:29:42;;;;;;;11.90;7.57;;;27.20;26.80;;;;;;5011284;28;20048;-69
2022/05/02 11:32:24;;;;;;;14.07;8.30;;;27.40;27.00;;;;;;5013444;28;20500;-69
2022/05/02 11:35:06;;;;;;;17.15;8.80;;;27.50;26.40;;;;;;5044839;28;20042;-69
2022/05/02 11:37:47;;;;;;;53.63;9.25;;;27.40;26.60;;;;;;5009346;28;20037;-69
2022/05/02 11:40:13;;;;;;;11.32;8.10;;;27.50;26.80;;;;;;5030165;28;20038;-69
2022/05/02 11:42:46;;;;;;;12.25;8.07;;;27.70;26.50;;;;;;5013370;28;20846;-69
2022/05/02 11:45:17;;;;;;;11.48;7.95;;;28.00;26.20;;;;;;5012524;28;20061;-69
2022/05/02 11:48:00;;;;;;;12.45;8.02;;;28.40;26.00;;;;;;5021254;28;20026;-69
2022/05/02 11:50:27;;;;;;;12.45;7.60;;;28.70;25.70;;;;;;5023953;28;20044;-69
2022/05/02 11:52:59;;;;;;;12.48;9.02;;;28.70;25.50;;;;;;5022940;28;20026;-68
2022/05/02 11:55:33;;;;;;;14.55;7.35;;;28.60;24.70;;;;;;5007110;28;20559;-69
2022/05/02 11:58:05;;;;;;;13.30;7.72;;;28.90;25.00;;;;;;5026682;28;20027;-69
2022/05/02 12:00:33;;;;;;;12.05;6.97;;;29.50;24.60;;;;;;5013460;28;20033;-69
2022/05/02 12:03:11;;;;;;;13.80;7.63;;;29.20;25.20;;;;;;5017184;28;20018;-68
2022/05/02 12:05:41;;;;;;;10.23;7.20;;;28.80;25.20;;;;;;5017378;28;20116;-69
2022/05/02 12:08:09;;;;;;;12.50;7.10;;;28.60;25.10;;;;;;5011587;28;20089;-68
2022/05/02 12:10:45;;;;;;;12.23;6.95;;;28.40;25.90;;;;;;5029304;28;20037;-68
2022/05/02 12:13:16;;;;;;;13.18;7.60;;;28.20;26.20;;;;;;5015112;28;20026;-68
2022/05/02 12:16:08;;;;;;;9.85;6.82;;;27.90;26.40;;;;;;5013832;28;20552;-68
2022/05/02 12:18:51;;;;;;;10.23;6.75;;;27.90;26.50;;;;;;5042391;28;20120;-69
2022/05/02 12:21:31;;;;;;;12.00;7.03;;;27.60;27.00;;;;;;5026865;28;20034;-68
2022/05/02 12:23:58;;;;;;;9.93;7.17;;;27.50;26.60;;;;;;5017322;28;20025;-68
2022/05/02 12:26:25;;;;;;;11.82;7.18;;;27.40;26.70;;;;;;5015802;28;20497;-68
2022/05/02 12:29:11;;;;;;;9.35;7.10;;;27.30;26.80;;;;;;5015045;28;20045;-68
2022/05/02 12:31:38;;;;;;;13.70;7.60;;;27.00;27.00;;;;;;5013133;28;20022;-68
2022/05/02 12:34:12;;;;;;;12.30;7.15;;;26.70;27.40;;;;;;5025691;28;20488;-68
2022/05/02 12:36:43;;;;;;;10.15;6.97;;;26.40;27.60;;;;;;5016991;28;20027;-68
2022/05/02 12:39:23;;;;;;;13.02;6.70;;;26.50;27.50;;;;;;5032754;28;20094;-68
2022/05/02 12:41:54;;;;;;;11.73;7.88;;;26.40;27.50;;;;;;5022792;28;20044;-68
2022/05/02 12:44:25;;;;;;;12.27;7.43;;;26.10;27.80;;;;;;5014920;28;20059;-69
2022/05/02 12:46:53;;;;;;;10.48;7.85;;;26.10;27.90;;;;;;5014076;28;20117;-68
2022/05/02 12:49:28;;;;;;;11.98;7.00;;;26.50;27.70;;;;;;5041212;28;20045;-68
2022/05/02 12:51:56;;;;;;;12.38;7.32;;;26.70;27.60;;;;;;5026995;28;20532;-68
2022/05/02 12:54:25;;;;;;;11.73;7.80;;;26.80;27.60;;;;;;5015732;28;20765;-68
2022/05/02 13:02:41;;;;;;;10.32;7.15;;;26.80;27.70;;;;;;5022598;28;20032;-68
2022/05/02 13:05:24;;;;;;;9.57;7.10;;;26.80;27.30;;;;;;5024276;28;20052;-68
2022/05/02 13:07:54;;;;;;;10.80;7.63;;;26.60;27.40;;;;;;5014134;28;20064;-68
2022/05/02 13:10:24;;;;;;;12.68;7.82;;;26.20;27.80;;;;;;5034854;28;20051;-68
2022/05/02 13:13:09;;;;;;;10.52;7.57;;;25.80;28.60;;;;;;5027124;28;20026;-68
2022/05/02 13:15:43;;;;;;;14.88;7.45;;;25.40;28.90;;;;;;5013297;28;20615;-68
2022/05/02 13:18:20;;;;;;;12.18;7.68;;;25.30;29.00;;;;;;5027241;28;20551;-68
2022/05/02 13:21:12;;;;;;;8.98;7.20;;;25.80;28.40;;;;;;5025412;28;20091;-68
2022/05/02 13:23:44;;;;;;;10.50;7.15;;;25.80;28.60;;;;;;5015796;28;20052;-68
2022/05/02 13:26:23;;;;;;;10.77;7.15;;;25.40;28.90;;;;;;5013938;28;20026;-68
2022/05/02 13:28:51;;;;;;;11.35;7.82;;;25.10;29.20;;;;;;5025123;28;20037;-68
2022/05/02 13:31:29;;;;;;;11.82;7.45;;;24.90;29.20;;;;;;5010728;28;20033;-68
2022/05/02 13:34:01;;;;;;;11.98;7.53;;;24.70;29.30;;;;;;5026868;28;20036;-68
2022/05/02 13:36:39;;;;;;;9.95;7.35;;;25.10;28.80;;;;;;5014051;28;20163;-68